Farmington, NM

11:03 AM MST on January 30, 2015 (GMT -0700)
Butler and 23rd Street | Change Station
CLOSE
Current Station
Personal Weather Station
Location: Farmington, NM
Elevation: 5500 ft
Nearby Weather Stations

Elev 5500 ft 36.75 °N, 108.20 °W | Updated 2 seconds ago

Light Snow
Light Snow Mist
32.0 °F
Feels Like 24 °F
N
9.0
Wind Variable Wind from East
Gusts 16.0 mph

Today
High -- | Low -- °F
--% Chance of Precip.
Yesterday
High -- | Low -- °F
Precip. -- in
7:16 AM 5:36 PM
Waxing Gibbous, 84% visible
Pressure 30.20 in
Visibility 0.8 miles
Clouds Overcast 400 ft
Windchill 24 °F
Dew Point 32 °F
Humidity 100%
Rainfall 0.09 in
Snow Depth Not available.
UV 1 out of 12
Pollen .20 out of 12
Air Quality Not available.
Flu Activity Not available.
METAR KFMN 301753Z 09008KT 3/4SM -SN BR OVC004 00/M01 A3018 RMK AO2 SLP225 P0006 60038 T00001006 10000 20000 56004

More Conditions Fewer Conditions

Pressure 30.20 in
Visibility 0.8 miles
Clouds Overcast 400 ft
Windchill 24 °F
Dew Point 32 °F
Humidity 100%
Rainfall 0.09 in
Snow Depth Not available.
UV 1 out of 12
Pollen .20 out of 12
Air Quality Not available.
Flu Activity Not available.
METAR KFMN 301753Z 09008KT 3/4SM -SN BR OVC004 00/M01 A3018 RMK AO2 SLP225 P0006 60038 T00001006 10000 20000 56004

More Conditions Fewer Conditions

Nowcast | as of 9:56 am MST on January 30, 2015

Through 12 noon...snow will continue across western New Mexico... perhaps mixed with rain at lower elevations. The snow will impact roads especially near the Continental Divide...including Interstate 40 near Thoreau and Highway 550 northwest of Cuba. Around 1 or 2 inches of new snow accumulation will be possible above 5500 feet. For the latest Road conditions visit N M roads dot com or dial 511.

×

10-Day Weather Forecast

Almanac

Astronomy

Jan. 30, 2015 Rise Set
Actual Time
Civil Twilight
Nautical Twilight
Astronomical Twilight
Moon
Length of Visible Light
Length of Day
Tomorrow will be .
, % of the Moon is Illuminated

Today's Extremes

State Highs State Lows

Community

WunderPhotos

Upload Photos

1,791,845 photos uploaded!

WunderBlogs® & News

Nearby

Air Quality

  Air Quality AQ Index Pollutant
Not available.

Snow Depth

Station Depth Elevation

Earthquake Activity

City Distance Mag. Time & Date
Minimum magnitude displayed is 2.5.

Coastal Water Temperatures

Place Temperature

Nearby Weather Stations